North Pickens Airport (FAA LID: 3M8) is a county-owned public-use airport in Pickens County, Alabama, United States.
UNICOM: None
CTAF: 122.9 MHz
ATIS: None
RADAR SERVICE: Approach / Departure
COLUMBUS APPROACH/DEPARTURE: 135.6 MHz APCH/P DEP/P
Runway 1/19
Dimensions: 5144 x 80 ft. / 1568 x 24 m
Surface: asphalt, in good condition
Runway edge lights: medium intensity
Nearest
TUSCALOOSA, AL
Metar
KTCL 160653Z AUTO 31003KT 10SM CLR M02/M03 A3039 RMK AO2 SLP292 T10221033

06:53 UTC

Wind: 310° 3kt

Visibility: 10 SM

Sky:

Temp: -2 deg C / 28.4 deg F

Dewpoint: -3 deg C / 26.6 deg F

Pressure: 30.39 inHg

TAF
KTCL 160532Z 1606/1706 00000KT P6SM SKC FM160900 35007KT P6SM BKN050 FM161800 35010KT 5SM -SN OVC035 FM162100 35010KT 3SM -SN OVC015 FM170200 35012KT P6SM BKN050